Time;durP1;ratioP1;P1;durP2;ratioP2;P2;SDS_P1;SDS_P2;PMS_P1;PMS_P2;Temp;Humidity;BMP_temperature;BMP_pressure;BME280_temperature;BME280_humidity;BME280_pressure;Samples;Min_cycle;Max_cycle;Signal;HPM_P1;HPM_P2
2023/01/24 00:00:53;;;;;;;3.77;2.80;;;7.30;98.20;;;;;;5065054;28;20198;-67
2023/01/24 00:03:20;;;;;;;9.90;3.80;;;7.30;98.30;;;;;;5064277;28;20207;-66
2023/01/24 00:05:48;;;;;;;5.73;3.17;;;7.30;98.40;;;;;;5064014;28;20199;-67
2023/01/24 00:08:22;;;;;;;5.77;2.73;;;7.30;98.50;;;;;;5069268;28;20209;-66
2023/01/24 00:10:59;;;;;;;6.37;2.77;;;7.20;98.40;;;;;;5062394;28;20213;-66
2023/01/24 00:13:26;;;;;;;6.10;3.90;;;7.20;98.40;;;;;;5059164;28;20206;-66
2023/01/24 00:16:18;;;;;;;7.43;5.37;;;7.10;98.60;;;;;;5058268;28;20210;-67
2023/01/24 00:18:46;;;;;;;15.50;5.73;;;7.00;98.10;;;;;;5061938;28;20283;-67
2023/01/24 00:21:16;;;;;;;8.07;5.70;;;6.80;98.00;;;;;;5060582;28;20206;-67
2023/01/24 00:23:45;;;;;;;10.80;6.60;;;6.80;98.10;;;;;;5068774;28;20198;-66
2023/01/24 00:26:14;;;;;;;10.30;7.83;;;6.70;98.10;;;;;;5061045;28;20202;-66
2023/01/24 00:28:44;;;;;;;12.93;6.87;;;6.70;98.00;;;;;;5061036;28;20218;-67
2023/01/24 00:31:11;;;;;;;11.53;7.33;;;6.60;98.00;;;;;;5064077;28;20205;-66
2023/01/24 00:33:38;;;;;;;8.77;7.07;;;6.50;97.90;;;;;;5060380;28;20195;-66
2023/01/24 00:36:08;;;;;;;12.10;7.30;;;6.50;98.00;;;;;;5069964;28;20222;-66
2023/01/24 00:38:35;;;;;;;10.83;8.03;;;6.40;98.00;;;;;;5063106;28;20206;-66
2023/01/24 00:41:02;;;;;;;12.63;8.63;;;6.40;98.00;;;;;;5066552;28;20210;-67
2023/01/24 00:43:29;;;;;;;9.80;7.80;;;6.40;98.00;;;;;;5063588;28;20198;-66
2023/01/24 00:45:56;;;;;;;9.87;8.13;;;6.30;98.00;;;;;;5054553;28;20662;-66
2023/01/24 00:48:23;;;;;;;15.37;9.60;;;6.30;98.00;;;;;;5064311;28;20952;-66
2023/01/24 00:50:51;;;;;;;11.83;8.77;;;6.30;97.90;;;;;;5060606;28;20198;-66
2023/01/24 00:53:19;;;;;;;12.37;8.87;;;6.30;97.90;;;;;;5051398;28;20206;-66
2023/01/24 00:55:48;;;;;;;16.33;9.40;;;6.20;98.00;;;;;;5095603;28;20194;-66
2023/01/24 00:58:15;;;;;;;13.20;10.00;;;6.20;98.00;;;;;;5061523;28;20213;-66
2023/01/24 01:00:42;;;;;;;14.40;9.03;;;6.20;98.00;;;;;;5063289;28;20300;-66
2023/01/24 01:03:18;;;;;;;14.90;10.50;;;6.20;98.10;;;;;;5065045;28;20230;-66
2023/01/24 01:05:46;;;;;;;13.57;9.87;;;6.20;98.10;;;;;;5063335;28;20249;-66
2023/01/24 01:08:14;;;;;;;12.03;9.67;;;6.20;98.20;;;;;;5063917;28;20204;-66
2023/01/24 01:10:41;;;;;;;13.97;9.87;;;6.20;98.20;;;;;;5069113;28;20226;-67
2023/01/24 01:13:11;;;;;;;15.43;10.63;;;6.20;98.20;;;;;;5059134;28;20198;-66
2023/01/24 01:15:38;;;;;;;14.17;10.13;;;6.20;98.20;;;;;;5082886;28;20686;-67
2023/01/24 01:18:05;;;;;;;12.87;8.93;;;6.20;98.20;;;;;;5080226;28;20218;-66
2023/01/24 01:20:32;;;;;;;14.60;9.93;;;6.20;98.10;;;;;;5058357;28;20520;-67
2023/01/24 01:22:59;;;;;;;12.93;9.83;;;6.20;98.00;;;;;;5067731;28;20206;-67
2023/01/24 01:25:26;;;;;;;13.77;9.13;;;6.20;98.10;;;;;;5066127;28;20212;-66
2023/01/24 01:27:53;;;;;;;14.87;9.60;;;6.20;98.20;;;;;;5056776;28;20194;-66
2023/01/24 01:30:21;;;;;;;13.67;10.10;;;6.10;98.10;;;;;;5067345;28;20599;-66
2023/01/24 01:32:48;;;;;;;16.10;9.87;;;6.20;98.20;;;;;;5063071;28;20209;-66
2023/01/24 01:35:15;;;;;;;14.83;10.37;;;6.10;98.40;;;;;;5093847;28;20214;-66
2023/01/24 01:37:42;;;;;;;18.67;10.20;;;6.20;98.20;;;;;;5065385;28;20288;-66
2023/01/24 01:40:10;;;;;;;12.87;9.97;;;6.20;98.20;;;;;;5063214;28;20229;-66
2023/01/24 01:42:49;;;;;;;13.13;10.33;;;6.20;98.30;;;;;;5066392;28;20208;-66
2023/01/24 01:45:40;;;;;;;13.17;10.10;;;6.30;98.40;;;;;;5061111;28;20727;-66
2023/01/24 01:48:38;;;;;;;11.80;10.03;;;6.30;98.40;;;;;;5065185;28;20255;-66
2023/01/24 01:51:37;;;;;;;13.83;10.97;;;6.30;98.30;;;;;;5058791;28;20319;-66
2023/01/24 01:54:11;;;;;;;16.60;9.80;;;6.20;98.30;;;;;;5044839;28;20673;-66
2023/01/24 01:56:45;;;;;;;10.90;9.63;;;6.30;98.30;;;;;;5103008;28;20600;-66
2023/01/24 01:59:21;;;;;;;13.90;10.53;;;6.20;98.30;;;;;;5069091;28;20536;-66
2023/01/24 02:01:50;;;;;;;17.10;11.00;;;6.30;98.30;;;;;;5064158;28;20233;-66
2023/01/24 02:04:23;;;;;;;16.30;11.10;;;6.30;98.30;;;;;;5078905;28;20652;-67
2023/01/24 02:06:56;;;;;;;16.60;10.43;;;6.30;98.40;;;;;;5073262;28;20202;-66
2023/01/24 02:09:28;;;;;;;15.97;11.03;;;6.30;98.40;;;;;;5065488;28;20297;-67
2023/01/24 02:12:01;;;;;;;12.30;10.10;;;6.30;98.30;;;;;;5067439;28;20208;-66
2023/01/24 02:17:18;;;;;;;13.73;11.40;;;6.40;98.30;;;;;;5071818;28;20237;-67
2023/01/24 02:19:51;;;;;;;15.40;10.93;;;6.30;98.30;;;;;;5065946;28;20241;-67
2023/01/24 02:22:50;;;;;;;15.10;10.73;;;6.30;98.30;;;;;;5062913;28;20209;-68
2023/01/24 02:25:32;;;;;;;16.33;11.07;;;6.30;98.30;;;;;;5066355;28;20202;-67
2023/01/24 02:28:02;;;;;;;15.07;10.77;;;6.30;98.30;;;;;;5087142;28;20289;-66
2023/01/24 02:30:30;;;;;;;15.57;11.30;;;6.30;98.30;;;;;;5067985;28;20342;-67
2023/01/24 02:32:58;;;;;;;13.30;10.60;;;6.30;98.30;;;;;;5096646;28;20220;-66
2023/01/24 02:35:31;;;;;;;19.30;11.17;;;6.30;98.30;;;;;;5071897;28;20234;-66
2023/01/24 02:38:00;;;;;;;14.50;10.03;;;6.30;98.30;;;;;;5070120;28;20245;-66
2023/01/24 02:40:29;;;;;;;16.17;10.63;;;6.30;98.30;;;;;;5065898;28;20204;-67
2023/01/24 02:43:00;;;;;;;14.20;10.33;;;6.30;98.30;;;;;;5069605;28;20199;-67
2023/01/24 02:45:30;;;;;;;12.47;9.70;;;6.20;98.30;;;;;;5059274;28;20648;-66
2023/01/24 02:47:57;;;;;;;12.87;10.00;;;6.20;98.30;;;;;;5068907;28;20660;-66
2023/01/24 02:50:28;;;;;;;15.67;10.50;;;6.20;98.20;;;;;;5066460;28;20199;-67
2023/01/24 02:58:28;;;;;;;14.00;11.17;;;6.20;98.30;;;;;;5097235;28;20220;-67
2023/01/24 03:00:56;;;;;;;14.40;10.97;;;6.20;98.30;;;;;;5070746;28;20202;-66
2023/01/24 03:03:24;;;;;;;13.17;10.43;;;6.20;98.40;;;;;;5072393;28;20659;-67
2023/01/24 03:05:57;;;;;;;16.10;10.50;;;6.20;98.40;;;;;;5063253;28;20625;-67
2023/01/24 03:08:35;;;;;;;12.63;9.90;;;6.20;98.40;;;;;;5063985;28;20201;-67
2023/01/24 03:11:11;;;;;;;13.83;10.33;;;6.20;98.40;;;;;;5070133;28;20547;-67
2023/01/24 03:35:53;;;;;;;14.93;9.80;;;6.20;98.40;;;;;;5064152;28;20202;-67
2023/01/24 03:41:12;;;;;;;15.00;10.27;;;6.20;98.40;;;;;;5095353;28;20220;-67
2023/01/24 03:43:43;;;;;;;13.27;10.23;;;6.20;98.40;;;;;;5081691;28;20252;-66
2023/01/24 03:46:11;;;;;;;14.30;9.90;;;6.20;98.40;;;;;;5055605;28;20232;-67
2023/01/24 03:48:49;;;;;;;17.53;10.87;;;6.20;98.50;;;;;;5080307;28;20289;-67
2023/01/24 03:54:05;;;;;;;17.10;10.23;;;6.20;98.50;;;;;;5097451;28;20207;-67
2023/01/24 03:56:51;;;;;;;16.53;11.50;;;6.30;98.60;;;;;;5061357;28;20313;-67
2023/01/24 03:59:20;;;;;;;17.13;10.23;;;6.30;98.60;;;;;;5066313;28;20290;-67
2023/01/24 04:01:47;;;;;;;13.47;9.97;;;6.30;98.60;;;;;;5062372;28;20265;-67
2023/01/24 04:04:22;;;;;;;13.93;10.37;;;6.30;98.60;;;;;;5053185;28;20236;-67
2023/01/24 04:06:50;;;;;;;15.63;10.03;;;6.30;98.60;;;;;;5099571;28;20215;-67
2023/01/24 04:09:18;;;;;;;15.13;10.77;;;6.40;98.60;;;;;;5070569;28;20237;-67
2023/01/24 04:11:46;;;;;;;14.67;9.53;;;6.30;98.60;;;;;;5063880;28;20249;-67
2023/01/24 04:14:20;;;;;;;13.50;10.50;;;6.30;98.60;;;;;;5062860;28;20311;-67
2023/01/24 04:17:02;;;;;;;12.57;9.73;;;6.30;98.50;;;;;;5064988;28;20271;-67
2023/01/24 04:19:38;;;;;;;16.17;11.03;;;6.40;98.60;;;;;;5072593;28;20276;-66
2023/01/24 04:22:06;;;;;;;15.63;11.47;;;6.30;98.20;;;;;;5064145;28;20213;-66
2023/01/24 04:24:35;;;;;;;13.33;10.00;;;6.30;98.20;;;;;;5068693;28;20198;-66
2023/01/24 04:27:02;;;;;;;12.13;10.20;;;6.30;98.20;;;;;;5061914;28;20202;-66
2023/01/24 04:29:40;;;;;;;15.30;11.13;;;6.30;98.00;;;;;;5067425;28;20297;-66
2023/01/24 04:32:08;;;;;;;20.20;11.23;;;6.20;98.10;;;;;;5071525;28;20583;-67
2023/01/24 04:34:43;;;;;;;17.23;10.83;;;6.20;98.20;;;;;;5065129;28;20213;-67
2023/01/24 04:37:17;;;;;;;15.47;11.63;;;6.20;98.30;;;;;;5071747;28;20232;-66
2023/01/24 04:39:45;;;;;;;17.53;11.17;;;6.20;98.40;;;;;;5071538;28;20210;-66
2023/01/24 04:42:15;;;;;;;12.33;10.10;;;6.20;98.50;;;;;;5077287;28;20198;-66
2023/01/24 04:44:43;;;;;;;15.17;11.30;;;6.30;98.40;;;;;;5069388;28;20245;-66
2023/01/24 04:47:11;;;;;;;17.33;10.90;;;6.30;98.40;;;;;;5051897;28;20210;-67
2023/01/24 04:49:40;;;;;;;16.00;11.17;;;6.30;98.40;;;;;;5066592;28;20202;-66
2023/01/24 04:52:12;;;;;;;14.73;11.00;;;6.30;98.50;;;;;;5069831;28;20220;-66
2023/01/24 04:54:59;;;;;;;14.67;10.70;;;6.30;98.40;;;;;;5062886;28;20210;-66
2023/01/24 04:57:27;;;;;;;23.70;11.93;;;6.30;98.50;;;;;;5068768;28;20229;-66
2023/01/24 04:59:54;;;;;;;21.90;12.53;;;6.30;98.50;;;;;;5060387;28;20232;-66
2023/01/24 05:02:22;;;;;;;17.50;12.53;;;6.40;98.60;;;;;;5067779;28;20234;-66
2023/01/24 05:04:49;;;;;;;20.30;12.20;;;6.40;98.60;;;;;;5060706;28;20288;-68
2023/01/24 05:07:16;;;;;;;17.43;12.63;;;6.40;98.70;;;;;;5068326;28;20251;-67
2023/01/24 05:09:51;;;;;;;17.37;11.07;;;6.40;98.70;;;;;;5072623;28;20300;-66
2023/01/24 05:12:19;;;;;;;17.57;11.13;;;6.40;98.70;;;;;;5063299;28;20193;-66
2023/01/24 05:14:46;;;;;;;15.20;10.87;;;6.40;98.70;;;;;;5067698;28;20256;-66
2023/01/24 05:17:13;;;;;;;19.17;11.67;;;6.40;98.80;;;;;;5064353;28;20217;-66
2023/01/24 05:19:41;;;;;;;15.37;10.63;;;6.50;98.80;;;;;;5092451;28;20198;-66
2023/01/24 05:22:08;;;;;;;13.40;10.03;;;6.50;98.90;;;;;;5062865;28;20680;-67
2023/01/24 05:24:40;;;;;;;15.83;10.67;;;6.50;98.80;;;;;;5077988;28;20198;-66
2023/01/24 05:27:08;;;;;;;13.70;10.93;;;6.50;98.80;;;;;;5061072;28;20216;-66
2023/01/24 05:29:39;;;;;;;15.93;11.37;;;6.50;98.80;;;;;;5061520;28;20289;-66
2023/01/24 05:32:06;;;;;;;13.50;10.07;;;6.50;98.80;;;;;;5069474;28;20552;-67
2023/01/24 05:34:35;;;;;;;15.03;10.30;;;6.50;98.80;;;;;;5069572;28;20203;-68
2023/01/24 05:37:04;;;;;;;18.07;10.90;;;6.50;98.80;;;;;;5064768;28;20544;-66
2023/01/24 05:39:35;;;;;;;14.70;10.03;;;6.50;98.80;;;;;;5062595;28;20548;-66
2023/01/24 05:42:03;;;;;;;15.50;9.83;;;6.50;98.80;;;;;;5066207;28;20297;-66
2023/01/24 05:44:38;;;;;;;17.40;10.23;;;6.50;98.80;;;;;;5061488;28;20194;-66
2023/01/24 05:47:05;;;;;;;16.87;10.40;;;6.50;98.70;;;;;;5069482;28;20230;-66
2023/01/24 05:49:36;;;;;;;15.17;9.77;;;6.50;98.70;;;;;;5064978;28;20203;-66
2023/01/24 05:52:03;;;;;;;14.13;10.17;;;6.50;98.70;;;;;;5063093;28;20301;-66
2023/01/24 05:54:44;;;;;;;12.63;9.90;;;6.50;98.80;;;;;;5068656;28;20209;-66
2023/01/24 05:57:43;;;;;;;15.37;9.90;;;6.50;98.80;;;;;;5055476;28;20369;-66
2023/01/24 06:00:28;;;;;;;15.73;10.03;;;6.40;98.80;;;;;;5062486;28;20228;-67
2023/01/24 06:03:26;;;;;;;12.27;9.50;;;6.40;98.80;;;;;;5068802;28;20217;-66
2023/01/24 06:05:55;;;;;;;16.03;9.47;;;6.40;98.80;;;;;;5079748;28;20289;-66
2023/01/24 06:08:26;;;;;;;16.47;9.63;;;6.40;98.80;;;;;;5061159;28;20210;-66
2023/01/24 06:10:53;;;;;;;15.40;9.33;;;6.40;98.90;;;;;;5063457;28;20629;-66
2023/01/24 06:13:22;;;;;;;11.63;8.77;;;6.40;98.90;;;;;;5066715;28;20210;-66
2023/01/24 06:15:49;;;;;;;13.80;8.77;;;6.40;98.80;;;;;;5060122;28;20204;-70
2023/01/24 06:18:17;;;;;;;13.53;8.50;;;6.40;98.80;;;;;;5064858;28;20246;-68
2023/01/24 06:20:48;;;;;;;15.37;9.20;;;6.40;98.80;;;;;;5054674;28;20206;-66
2023/01/24 06:23:26;;;;;;;12.43;8.17;;;6.40;98.80;;;;;;5064943;28;20269;-67
2023/01/24 06:26:00;;;;;;;10.93;8.23;;;6.40;98.90;;;;;;5057890;28;20268;-66
2023/01/24 06:28:27;;;;;;;17.40;9.10;;;6.30;98.80;;;;;;5068241;28;20273;-66
2023/01/24 06:31:19;;;;;;;14.43;9.10;;;6.30;98.80;;;;;;5065146;28;20654;-66
2023/01/24 06:34:03;;;;;;;12.30;8.37;;;6.30;98.90;;;;;;5067865;28;20615;-67
2023/01/24 06:36:57;;;;;;;14.93;10.17;;;6.30;98.90;;;;;;5064461;28;20209;-67
2023/01/24 06:39:24;;;;;;;15.17;8.50;;;6.20;98.80;;;;;;5058086;28;20245;-68
2023/01/24 06:41:52;;;;;;;13.83;8.73;;;6.20;98.80;;;;;;5064459;28;20614;-67
2023/01/24 06:44:19;;;;;;;14.43;9.73;;;6.20;98.90;;;;;;5062132;28;20203;-67
2023/01/24 06:46:46;;;;;;;14.33;7.93;;;6.20;98.90;;;;;;5065821;28;20683;-66
2023/01/24 06:49:14;;;;;;;15.57;7.63;;;6.20;98.90;;;;;;5066396;28;20197;-66
2023/01/24 06:51:40;;;;;;;13.30;8.00;;;6.20;99.00;;;;;;5061246;28;20210;-66
2023/01/24 06:54:08;;;;;;;15.83;8.07;;;6.30;99.10;;;;;;5068566;28;20293;-66
2023/01/24 06:56:35;;;;;;;12.80;9.93;;;6.30;99.10;;;;;;5064237;28;20205;-67
2023/01/24 06:59:02;;;;;;;14.10;7.87;;;6.30;99.10;;;;;;5066482;28;20214;-67
2023/01/24 07:01:29;;;;;;;12.03;6.80;;;6.40;99.20;;;;;;5061805;28;20302;-67
2023/01/24 07:03:56;;;;;;;18.67;7.77;;;6.40;99.10;;;;;;5068086;28;20202;-67
2023/01/24 07:06:23;;;;;;;14.37;6.93;;;6.40;99.10;;;;;;5065406;28;20203;-67
2023/01/24 07:08:50;;;;;;;13.03;6.43;;;6.50;99.10;;;;;;5066885;28;20296;-67
2023/01/24 07:11:17;;;;;;;15.00;6.90;;;6.50;99.10;;;;;;5067060;28;20275;-67
2023/01/24 07:13:44;;;;;;;14.43;6.60;;;6.60;99.10;;;;;;5063778;28;20230;-67
2023/01/24 07:16:11;;;;;;;13.70;8.27;;;6.60;99.10;;;;;;5065551;28;20292;-66
2023/01/24 07:18:39;;;;;;;17.03;7.13;;;6.70;99.10;;;;;;5065468;28;20207;-67
2023/01/24 07:21:09;;;;;;;11.43;6.20;;;6.80;99.10;;;;;;5073132;28;20194;-67
2023/01/24 07:23:37;;;;;;;13.20;6.00;;;6.80;99.10;;;;;;5068597;28;20197;-67
2023/01/24 07:26:09;;;;;;;7.40;5.33;;;6.80;99.10;;;;;;5066026;28;20197;-67
2023/01/24 07:28:36;;;;;;;10.47;5.73;;;6.90;99.10;;;;;;5066431;28;20198;-67
2023/01/24 07:31:03;;;;;;;8.87;5.67;;;6.90;99.10;;;;;;5063901;28;20209;-66
2023/01/24 07:33:31;;;;;;;8.37;5.13;;;7.00;99.10;;;;;;5065047;28;20198;-67
2023/01/24 07:35:58;;;;;;;10.10;5.50;;;7.00;99.00;;;;;;5062993;28;20527;-67
2023/01/24 07:38:25;;;;;;;7.67;6.57;;;7.00;98.80;;;;;;5062821;28;20712;-66
2023/01/24 07:40:52;;;;;;;15.73;6.50;;;7.00;98.70;;;;;;5065741;28;20649;-66
2023/01/24 07:43:20;;;;;;;9.83;6.03;;;7.00;98.70;;;;;;5066467;28;20201;-66
2023/01/24 07:45:47;;;;;;;10.03;6.00;;;7.00;98.90;;;;;;5062869;28;20240;-66
2023/01/24 07:48:16;;;;;;;12.63;6.90;;;7.10;99.00;;;;;;5066053;28;20212;-66
2023/01/24 07:50:43;;;;;;;11.80;6.53;;;7.10;99.00;;;;;;5066638;28;20555;-66
2023/01/24 07:53:10;;;;;;;12.23;5.83;;;7.20;99.00;;;;;;5070121;28;20203;-66
2023/01/24 07:55:37;;;;;;;9.40;6.10;;;7.30;99.00;;;;;;5061031;28;20279;-66
2023/01/24 07:58:04;;;;;;;8.73;5.80;;;7.40;99.00;;;;;;5063002;28;20267;-66
2023/01/24 08:00:31;;;;;;;7.93;6.17;;;7.50;99.00;;;;;;5063147;28;20198;-66
2023/01/24 08:02:58;;;;;;;7.50;6.20;;;7.60;98.80;;;;;;5060913;28;20681;-67
2023/01/24 08:05:25;;;;;;;8.23;6.10;;;7.60;98.50;;;;;;5063671;28;20641;-66
2023/01/24 08:07:54;;;;;;;9.80;6.53;;;7.70;98.50;;;;;;5058774;28;20649;-66
2023/01/24 08:10:22;;;;;;;8.90;5.70;;;7.70;98.60;;;;;;5061553;28;20197;-66
2023/01/24 08:12:50;;;;;;;12.23;6.77;;;7.80;98.70;;;;;;5066120;28;20230;-65
2023/01/24 08:15:17;;;;;;;9.30;6.23;;;7.90;98.80;;;;;;5068216;28;20202;-66
2023/01/24 08:17:44;;;;;;;8.73;6.80;;;8.00;98.70;;;;;;5060329;28;20570;-66
2023/01/24 08:20:11;;;;;;;10.53;6.77;;;8.10;98.70;;;;;;5060968;28;20216;-66
2023/01/24 08:22:40;;;;;;;11.40;7.40;;;8.20;98.70;;;;;;5062622;28;20264;-66
2023/01/24 08:25:25;;;;;;;13.63;6.93;;;8.40;98.70;;;;;;5064537;28;20191;-66
2023/01/24 08:27:53;;;;;;;10.23;6.90;;;8.50;98.80;;;;;;5059901;28;20497;-66
2023/01/24 08:30:21;;;;;;;9.53;6.33;;;8.70;98.70;;;;;;5060026;28;20265;-65
2023/01/24 08:32:48;;;;;;;11.53;6.30;;;8.80;98.50;;;;;;5058883;28;20238;-68
2023/01/24 08:35:15;;;;;;;9.47;6.50;;;8.90;98.30;;;;;;5063310;28;20204;-66
2023/01/24 08:37:43;;;;;;;7.77;5.63;;;8.90;98.20;;;;;;5064125;28;20207;-66
2023/01/24 08:40:11;;;;;;;6.70;5.83;;;9.00;98.10;;;;;;5062114;28;20208;-66
2023/01/24 08:42:38;;;;;;;6.97;6.07;;;9.10;97.90;;;;;;5064290;28;20194;-66
2023/01/24 08:45:05;;;;;;;8.67;5.80;;;9.10;97.80;;;;;;5064485;28;20211;-66
2023/01/24 08:47:32;;;;;;;7.17;5.70;;;9.20;97.80;;;;;;5057681;28;20212;-66
2023/01/24 08:49:59;;;;;;;7.60;5.30;;;9.20;97.60;;;;;;5071752;28;20219;-66
2023/01/24 08:52:26;;;;;;;7.10;5.40;;;9.30;97.50;;;;;;5065592;28;20535;-66
2023/01/24 08:54:53;;;;;;;7.10;4.77;;;9.30;97.40;;;;;;5071021;28;20195;-66
2023/01/24 08:57:20;;;;;;;5.47;4.37;;;9.40;97.30;;;;;;5059760;28;20216;-66
2023/01/24 08:59:47;;;;;;;6.60;4.83;;;9.50;97.10;;;;;;5068228;28;20610;-66
2023/01/24 09:02:16;;;;;;;7.27;5.43;;;9.50;97.00;;;;;;5069169;28;20360;-66
2023/01/24 09:04:43;;;;;;;7.90;4.60;;;9.60;96.90;;;;;;5070565;28;20627;-66
2023/01/24 09:07:10;;;;;;;7.43;4.93;;;9.70;96.50;;;;;;5065586;28;20199;-66
2023/01/24 09:09:37;;;;;;;5.43;4.50;;;9.70;95.90;;;;;;5065647;28;20658;-66
2023/01/24 09:12:05;;;;;;;6.33;4.87;;;9.80;96.00;;;;;;5061136;28;20198;-67
2023/01/24 09:14:32;;;;;;;5.60;4.50;;;9.90;96.00;;;;;;5070509;28;20527;-66
2023/01/24 09:16:59;;;;;;;6.30;4.50;;;10.10;96.00;;;;;;5067883;28;20217;-66
2023/01/24 09:19:26;;;;;;;6.33;4.50;;;10.20;95.80;;;;;;5057113;28;20222;-66
2023/01/24 09:21:56;;;;;;;5.20;4.10;;;10.30;95.60;;;;;;5068399;28;21025;-66
2023/01/24 09:24:24;;;;;;;6.40;4.60;;;10.30;95.30;;;;;;5061643;28;20192;-66
2023/01/24 09:26:51;;;;;;;7.10;4.90;;;10.30;95.10;;;;;;5058142;28;20197;-67
2023/01/24 09:29:18;;;;;;;6.60;5.10;;;10.30;95.10;;;;;;5061878;28;20214;-66
2023/01/24 09:31:49;;;;;;;5.53;4.90;;;10.30;95.00;;;;;;5058213;28;20202;-66
2023/01/24 09:34:17;;;;;;;8.70;4.83;;;10.30;95.00;;;;;;5066022;28;20249;-67
2023/01/24 09:36:48;;;;;;;7.37;4.40;;;10.30;95.00;;;;;;5061203;28;20199;-66
2023/01/24 09:39:16;;;;;;;6.20;3.97;;;10.30;94.90;;;;;;5064737;28;20543;-66
2023/01/24 09:42:04;;;;;;;7.73;4.60;;;10.20;94.90;;;;;;5061654;28;20193;-67
2023/01/24 09:44:59;;;;;;;7.00;4.37;;;10.20;94.90;;;;;;5078716;28;20212;-66
2023/01/24 09:47:51;;;;;;;7.77;4.37;;;10.30;95.00;;;;;;5061669;28;20544;-68
2023/01/24 09:50:33;;;;;;;5.93;4.73;;;10.30;95.00;;;;;;5058969;28;20665;-66
2023/01/24 09:53:00;;;;;;;6.10;4.53;;;10.40;94.90;;;;;;5070054;28;20661;-67
2023/01/24 09:55:32;;;;;;;5.70;3.87;;;10.40;94.90;;;;;;5061204;28;20604;-66
2023/01/24 09:58:06;;;;;;;5.67;4.20;;;10.50;95.20;;;;;;5064696;28;20203;-66
2023/01/24 10:00:38;;;;;;;6.07;4.10;;;10.60;94.80;;;;;;5071549;28;20195;-66
2023/01/24 10:03:25;;;;;;;5.23;3.87;;;10.70;94.70;;;;;;5074035;28;20574;-66
2023/01/24 10:05:56;;;;;;;6.83;4.00;;;10.80;94.40;;;;;;5067323;28;20517;-66
2023/01/24 10:08:58;;;;;;;4.63;4.10;;;10.90;94.20;;;;;;5063267;28;20243;-67
2023/01/24 10:11:50;;;;;;;7.33;3.90;;;10.90;94.00;;;;;;5059757;28;20208;-67
2023/01/24 10:14:36;;;;;;;5.33;4.33;;;11.00;93.60;;;;;;5064246;28;20206;-67
2023/01/24 10:17:24;;;;;;;3.97;3.30;;;11.10;93.40;;;;;;5066457;28;20198;-66
2023/01/24 10:20:06;;;;;;;7.80;3.70;;;11.20;93.00;;;;;;5072372;28;20232;-66
2023/01/24 10:23:01;;;;;;;8.07;4.20;;;11.30;93.00;;;;;;5067098;28;20898;-66
2023/01/24 10:25:46;;;;;;;6.03;4.20;;;11.40;93.00;;;;;;5067466;28;20193;-67
2023/01/24 10:28:37;;;;;;;7.60;4.13;;;11.60;92.90;;;;;;5081532;28;20202;-67
2023/01/24 10:31:14;;;;;;;5.57;3.57;;;11.80;92.60;;;;;;5070586;28;20580;-66
2023/01/24 10:33:50;;;;;;;6.33;3.90;;;11.90;92.40;;;;;;5066301;28;20659;-66
2023/01/24 10:36:35;;;;;;;4.17;3.30;;;12.00;92.10;;;;;;5062725;28;20197;-67
2023/01/24 10:39:02;;;;;;;5.60;3.70;;;12.10;91.90;;;;;;5065492;28;20285;-66
2023/01/24 10:41:33;;;;;;;9.73;3.83;;;12.10;91.70;;;;;;5067347;28;20199;-66
2023/01/24 10:44:19;;;;;;;6.33;3.57;;;12.10;91.40;;;;;;5063237;28;20556;-66
2023/01/24 10:47:05;;;;;;;6.53;3.60;;;12.00;91.20;;;;;;5066304;28;20201;-66
2023/01/24 10:49:36;;;;;;;6.50;3.80;;;11.80;91.00;;;;;;5058731;28;20658;-66
2023/01/24 10:52:19;;;;;;;9.27;4.47;;;11.60;90.70;;;;;;5062876;28;20538;-66
2023/01/24 10:54:51;;;;;;;5.27;4.00;;;11.40;90.30;;;;;;5072291;28;20201;-67
2023/01/24 10:57:41;;;;;;;5.73;3.90;;;11.30;90.90;;;;;;5068781;28;20561;-67
2023/01/24 11:00:14;;;;;;;8.17;4.47;;;11.30;91.30;;;;;;5065697;28;20213;-67
2023/01/24 11:02:46;;;;;;;8.03;4.00;;;11.30;91.50;;;;;;5070958;28;20254;-66
2023/01/24 11:05:13;;;;;;;4.50;3.97;;;11.40;91.70;;;;;;5069802;28;20643;-66
2023/01/24 11:07:47;;;;;;;4.60;3.43;;;11.50;91.80;;;;;;5063055;28;20197;-66
2023/01/24 11:10:26;;;;;;;4.50;3.50;;;11.60;91.90;;;;;;5064142;28;20198;-66
2023/01/24 11:13:00;;;;;;;7.40;3.83;;;11.70;92.00;;;;;;5062282;28;20595;-66
2023/01/24 11:15:32;;;;;;;5.53;3.50;;;11.70;90.70;;;;;;5061464;28;20211;-66
2023/01/24 11:18:06;;;;;;;8.57;3.67;;;11.70;89.50;;;;;;5062819;28;20649;-66
2023/01/24 11:20:35;;;;;;;5.13;3.17;;;11.70;90.10;;;;;;5066433;28;20208;-66
2023/01/24 11:27:14;;;;;;;5.77;3.37;;;11.80;90.00;;;;;;5069392;28;20224;-66
2023/01/24 11:29:42;;;;;;;5.73;3.70;;;11.70;90.20;;;;;;5064443;28;20194;-66
2023/01/24 11:32:33;;;;;;;6.73;3.83;;;11.70;90.50;;;;;;5063345;28;20204;-66
2023/01/24 11:35:07;;;;;;;4.87;3.87;;;11.70;90.70;;;;;;5066073;28;20216;-66
2023/01/24 11:48:58;;;;;;;6.57;3.53;;;11.80;90.20;;;;;;5065946;28;20746;-66
2023/01/24 12:21:59;;;;;;;7.67;5.67;;;11.50;90.80;;;;;;5065037;28;20224;-67
2023/01/24 12:24:41;;;;;;;9.23;6.07;;;11.30;91.10;;;;;;5059726;28;20204;-66
2023/01/24 12:27:17;;;;;;;7.07;6.37;;;11.30;91.60;;;;;;5061327;28;20201;-66
2023/01/24 12:30:04;;;;;;;8.17;5.43;;;11.40;91.10;;;;;;5060549;28;20189;-67
2023/01/24 12:32:56;;;;;;;8.03;5.70;;;11.50;90.70;;;;;;5060194;28;20209;-67
2023/01/24 12:35:32;;;;;;;8.70;6.80;;;11.40;90.40;;;;;;5064525;28;20276;-67
2023/01/24 12:38:18;;;;;;;8.60;5.70;;;11.30;90.60;;;;;;5065147;28;20209;-66
2023/01/24 12:41:04;;;;;;;8.97;6.00;;;11.20;91.00;;;;;;5065690;28;20211;-66
2023/01/24 12:43:52;;;;;;;7.90;6.37;;;11.20;91.20;;;;;;5072054;28;20578;-66
2023/01/24 12:46:37;;;;;;;7.50;6.30;;;11.20;91.40;;;;;;5096617;27;20210;-66
2023/01/24 12:49:41;;;;;;;9.00;7.77;;;11.30;91.50;;;;;;5059482;28;20205;-67
2023/01/24 12:52:32;;;;;;;7.33;6.13;;;11.30;91.60;;;;;;5065059;28;20205;-66
2023/01/24 12:55:15;;;;;;;7.20;5.80;;;11.30;91.60;;;;;;5061722;28;20268;-66
2023/01/24 12:57:50;;;;;;;9.57;5.83;;;11.30;91.60;;;;;;5061644;28;20259;-66
2023/01/24 13:00:19;;;;;;;7.90;6.17;;;11.30;91.70;;;;;;5057906;28;20226;-67
2023/01/24 13:03:08;;;;;;;12.00;6.33;;;11.30;91.80;;;;;;5066957;28;20232;-66
2023/01/24 13:05:44;;;;;;;6.37;5.60;;;11.30;91.80;;;;;;5066622;28;20203;-66
2023/01/24 13:08:49;;;;;;;11.50;5.10;;;11.30;91.40;;;;;;5061751;28;20226;-66
2023/01/24 13:11:23;;;;;;;9.17;5.07;;;11.30;91.20;;;;;;5067941;28;20211;-66
2023/01/24 13:14:09;;;;;;;12.17;4.83;;;11.20;90.70;;;;;;5066499;28;20619;-66
2023/01/24 13:16:36;;;;;;;7.03;5.13;;;11.20;91.00;;;;;;5063200;28;20200;-66
2023/01/24 13:19:35;;;;;;;5.73;4.83;;;11.10;91.20;;;;;;5062350;28;20202;-67
2023/01/24 13:22:40;;;;;;;6.83;5.10;;;11.20;91.50;;;;;;5065305;28;20198;-66
2023/01/24 13:25:43;;;;;;;13.43;5.40;;;11.40;91.70;;;;;;5060882;28;20204;-66
2023/01/24 13:28:10;;;;;;;8.87;5.00;;;11.60;91.80;;;;;;5052851;28;20217;-66
2023/01/24 13:30:37;;;;;;;6.20;5.13;;;11.90;91.60;;;;;;5060196;28;20220;-67
2023/01/24 13:33:05;;;;;;;8.63;5.23;;;12.10;91.30;;;;;;5060567;28;20315;-67
2023/01/24 13:35:32;;;;;;;7.20;5.20;;;12.20;90.50;;;;;;5064945;28;20204;-66
2023/01/24 13:38:14;;;;;;;8.87;5.47;;;12.40;90.30;;;;;;5070921;28;20303;-66
2023/01/24 13:41:05;;;;;;;6.57;4.93;;;12.50;90.10;;;;;;5064739;28;20224;-66
2023/01/24 13:43:59;;;;;;;7.17;4.60;;;12.60;89.60;;;;;;5064434;28;20216;-66
2023/01/24 13:46:44;;;;;;;5.07;4.00;;;12.60;89.40;;;;;;5068455;28;20194;-67
2023/01/24 13:49:31;;;;;;;10.00;4.70;;;12.70;88.20;;;;;;5065857;28;20227;-66
2023/01/24 13:52:00;;;;;;;8.07;5.33;;;12.70;88.30;;;;;;5068120;28;20279;-67
2023/01/24 13:54:36;;;;;;;6.50;4.67;;;12.80;88.30;;;;;;5062935;28;20217;-66
2023/01/24 13:57:12;;;;;;;9.30;5.27;;;12.90;88.20;;;;;;5078970;28;20205;-67
2023/01/24 13:59:41;;;;;;;6.87;5.20;;;12.90;88.00;;;;;;5068759;28;20232;-67
2023/01/24 14:02:28;;;;;;;8.03;4.43;;;13.00;88.00;;;;;;5056488;28;20233;-66
2023/01/24 14:04:56;;;;;;;9.20;5.07;;;13.00;88.00;;;;;;5066529;28;20192;-66
2023/01/24 14:07:31;;;;;;;8.80;5.43;;;13.00;87.90;;;;;;5069594;28;20623;-66
2023/01/24 14:10:03;;;;;;;6.40;4.87;;;13.10;88.00;;;;;;5065211;28;20589;-66
2023/01/24 14:12:37;;;;;;;9.20;5.30;;;13.10;87.70;;;;;;5062389;28;20208;-67
2023/01/24 14:15:12;;;;;;;9.43;5.03;;;13.20;87.60;;;;;;5072956;28;20248;-67
2023/01/24 14:17:43;;;;;;;7.33;5.00;;;13.20;87.50;;;;;;5063975;28;20197;-67
2023/01/24 14:20:28;;;;;;;9.37;5.57;;;13.30;87.30;;;;;;5062653;28;20252;-66
2023/01/24 14:22:59;;;;;;;8.43;5.47;;;13.30;86.70;;;;;;5065886;28;20199;-66
2023/01/24 14:25:50;;;;;;;5.47;4.57;;;13.20;84.10;;;;;;5065766;28;20205;-66
2023/01/24 14:28:40;;;;;;;8.00;5.70;;;13.00;83.60;;;;;;5066422;28;20197;-66
2023/01/24 14:31:23;;;;;;;9.70;5.73;;;12.90;84.70;;;;;;5066308;28;20209;-67
2023/01/24 14:34:11;;;;;;;8.23;4.77;;;12.80;85.70;;;;;;5069325;28;20206;-67
2023/01/24 14:36:38;;;;;;;8.47;4.63;;;12.70;85.20;;;;;;5058216;28;20193;-66
2023/01/24 14:39:23;;;;;;;8.03;4.93;;;12.60;85.60;;;;;;5061562;28;20216;-66